»·PEaware :: N5002T KSBA-KBUR

N5002T :: KSBA-KBUR

FLIGHT INFORMATION

Flight Status: Arrived
Operator: Privately registered:
United States
More flights under this callsign
Pilot: Hunter M. (19355)
Aircraft: CESSNA 172 SKYHAWK
(C172)
More flights by this aircraft type
Origin: KSBA Santa Barbara Mun
United States
Destination: KBUR Bob Hope-Burbank
United States
More flights between these airports :: More routes between these airports
Route: DIRECT
File this flight plan on PilotEdge
Remarks: Cat 8
Altitude:
(Current/Filed)
5,500ft
Speed:
(Current/Filed)
118kts
Departed: 23-Dec-18 08:14 PM
Arrived: 23-Dec-18 09:22 PM
Distance/Time
Traveled:
75nm/1:08
Distance/Time
To Go:
Arrived

Flight Plot

Page will automatically refresh every two minutes.


Map Options




Map Legend


Flown Route
Filed Route
Departure Airport
Arrival Airport
Navaid (VOR, NDB)
Fix

Horizontal Profiles

Position Reports

Time Latitude Longitude Heading Altitude Ground
Speed
23-Dec-18 19:55 34.431455 -119.831911 357 13ft 0kts
23-Dec-18 19:56 34.431455 -119.831911 357 13ft 0kts
23-Dec-18 19:57 34.431455 -119.831911 357 13ft 0kts
23-Dec-18 19:58 34.431455 -119.831911 357 13ft 0kts
23-Dec-18 19:59 34.431455 -119.831911 357 13ft 0kts
23-Dec-18 20:00 34.431455 -119.831911 357 13ft 0kts
23-Dec-18 20:01 34.431455 -119.831911 357 13ft 0kts
23-Dec-18 20:02 34.431455 -119.831911 357 13ft 0kts
23-Dec-18 20:03 34.431455 -119.831911 357 13ft 0kts
23-Dec-18 20:04 34.431455 -119.831911 357 13ft 0kts
23-Dec-18 20:05 34.432646 -119.833287 300 13ft 18kts
23-Dec-18 20:06 34.432236 -119.835184 252 13ft 0kts
23-Dec-18 20:07 34.431453 -119.837510 250 13ft 4kts
23-Dec-18 20:08 34.431425 -119.837610 250 13ft 0kts
23-Dec-18 20:09 34.431183 -119.838452 250 13ft 4kts
23-Dec-18 20:10 34.430763 -119.839582 241 13ft 0kts
23-Dec-18 20:11 34.430763 -119.839582 241 13ft 0kts
23-Dec-18 20:12 34.430425 -119.840146 203 13ft 9kts
23-Dec-18 20:13 34.413548 -119.835568 166 438ft 83kts
23-Dec-18 20:14 34.407399 -119.809834 93 1190ft 91kts
23-Dec-18 20:15 34.408039 -119.774925 92 1412ft 117kts
23-Dec-18 20:23 34.431461 -119.831912 357 13ft 0kts
23-Dec-18 20:24 34.431461 -119.831912 357 13ft 0kts
23-Dec-18 20:25 34.431462 -119.831912 357 13ft 0kts
23-Dec-18 20:26 34.431462 -119.831912 357 13ft 0kts
23-Dec-18 20:27 34.431463 -119.831912 357 13ft 0kts
23-Dec-18 20:28 34.431703 -119.832243 299 13ft 5kts
23-Dec-18 20:29 34.432656 -119.833312 314 13ft 4kts
23-Dec-18 20:30 34.431498 -119.837356 251 13ft 15kts
23-Dec-18 20:31 34.430780 -119.839493 239 13ft 0kts
23-Dec-18 20:32 34.430780 -119.839494 239 13ft 0kts
23-Dec-18 20:33 34.430482 -119.840061 226 13ft 7kts
23-Dec-18 20:34 34.423141 -119.838014 164 56ft 84kts
23-Dec-18 20:35 34.399594 -119.830738 163 819ft 90kts
23-Dec-18 20:36 34.374731 -119.823004 165 1409ft 99kts
23-Dec-18 20:37 34.345830 -119.814076 165 1383ft 100kts
23-Dec-18 20:38 34.320367 -119.806445 165 1400ft 92kts
23-Dec-18 20:39 34.295236 -119.798974 165 1401ft 93kts
23-Dec-18 20:40 34.278660 -119.783118 72 1471ft 96kts
23-Dec-18 20:41 34.284109 -119.750841 93 2130ft 102kts
23-Dec-18 20:42 34.282409 -119.715788 93 2796ft 105kts
23-Dec-18 20:43 34.280203 -119.681053 90 3448ft 102kts
23-Dec-18 20:44 34.278367 -119.646939 89 4092ft 100kts
23-Dec-18 20:45 34.276569 -119.613447 89 4735ft 98kts
23-Dec-18 20:46 34.274805 -119.580782 89 5371ft 96kts
23-Dec-18 20:47 34.272885 -119.544312 90 5515ft 121kts
23-Dec-18 20:48 34.270646 -119.502933 90 5510ft 124kts
23-Dec-18 20:49 34.268440 -119.463328 90 5498ft 109kts
23-Dec-18 20:50 34.266418 -119.426757 90 5513ft 110kts
23-Dec-18 20:51 34.264348 -119.389224 90 5510ft 112kts
23-Dec-18 20:52 34.262251 -119.351534 90 5509ft 112kts
23-Dec-18 20:53 34.260146 -119.313943 90 5509ft 112kts
23-Dec-18 20:54 34.258027 -119.276307 90 5510ft 112kts
23-Dec-18 20:55 34.255896 -119.238656 90 5509ft 112kts
23-Dec-18 20:56 34.253758 -119.201091 90 5509ft 112kts
23-Dec-18 20:57 34.251606 -119.163420 91 5509ft 112kts
23-Dec-18 20:58 34.249432 -119.125637 91 5509ft 112kts
23-Dec-18 20:59 34.247250 -119.087907 91 5509ft 112kts
23-Dec-18 21:00 34.245056 -119.050218 90 5511ft 112kts
23-Dec-18 21:01 34.242859 -119.012623 90 5511ft 112kts
23-Dec-18 21:02 34.240644 -118.974930 90 5505ft 112kts
23-Dec-18 21:03 34.238412 -118.937104 90 5498ft 112kts
23-Dec-18 21:04 34.236172 -118.899435 91 5498ft 112kts
23-Dec-18 21:05 34.233914 -118.861615 91 5499ft 112kts
23-Dec-18 21:06 34.231656 -118.824007 90 5499ft 112kts
23-Dec-18 21:07 34.229376 -118.786170 91 5499ft 113kts
23-Dec-18 21:08 34.227082 -118.748402 91 5504ft 112kts
23-Dec-18 21:09 34.224129 -118.710975 91 5320ft 111kts
23-Dec-18 21:11 34.221745 -118.673808 91 4813ft 109kts
23-Dec-18 21:12 34.219487 -118.637241 91 4314ft 108kts
23-Dec-18 21:13 34.217234 -118.600806 91 3828ft 109kts
23-Dec-18 21:14 34.214855 -118.564371 98 3327ft 109kts
23-Dec-18 21:15 34.207401 -118.528830 103 2836ft 108kts
23-Dec-18 21:16 34.199721 -118.494300 95 2341ft 103kts
23-Dec-18 21:17 34.197696 -118.463185 83 1910ft 77kts
23-Dec-18 21:18 34.199081 -118.438917 89 1764ft 68kts
23-Dec-18 21:19 34.198823 -118.416004 91 1595ft 64kts
23-Dec-18 21:20 34.198248 -118.394792 89 1250ft 62kts
23-Dec-18 21:21 34.198010 -118.374355 89 926ft 59kts
23-Dec-18 21:22 34.197901 -118.361964 91 781ft 10kts
23-Dec-18 21:23 34.196937 -118.360247 176 781ft 0kts
23-Dec-18 21:24 34.196276 -118.360272 184 781ft 5kts
23-Dec-18 21:25 34.195852 -118.360309 180 781ft 0kts
23-Dec-18 21:26 34.195851 -118.360309 180 781ft 0kts
23-Dec-18 21:27 34.195850 -118.360309 180 781ft 0kts
23-Dec-18 21:28 34.195850 -118.360309 180 781ft 0kts
23-Dec-18 21:29 34.195849 -118.360309 180 781ft 0kts
23-Dec-18 21:29 34.195848 -118.360309 180 781ft 0kts
23-Dec-18 21:31 34.195847 -118.360309 180 781ft 0kts
23-Dec-18 21:32 34.195847 -118.360309 180 781ft 0kts

Navigation Log

Ident Type
Flight plan parsing failed, navigation log unavailable